Time;durP1;ratioP1;P1;durP2;ratioP2;P2;SDS_P1;SDS_P2;PMS_P1;PMS_P2;Temp;Humidity;BMP_temperature;BMP_pressure;BME280_temperature;BME280_humidity;BME280_pressure;Samples;Min_cycle;Max_cycle;Signal;HPM_P1;HPM_P2
2022/08/24 00:05:20;;;;;;;6.93;5.45;;;11.90;99.90;;;;;;20463912;28;20409;-60
2022/08/24 00:15:23;;;;;;;8.18;5.47;;;12.20;99.90;;;;;;20462774;28;20043;-60
2022/08/24 00:25:26;;;;;;;6.68;5.60;;;12.20;99.90;;;;;;20496271;29;20114;-61
2022/08/24 00:35:29;;;;;;;8.68;6.28;;;12.00;99.90;;;;;;20463281;29;20039;-62
2022/08/24 00:45:39;;;;;;;9.18;6.93;;;11.90;99.90;;;;;;20478845;29;20035;-60
2022/08/24 00:55:49;;;;;;;9.67;7.43;;;11.80;99.90;;;;;;20464023;29;20106;-60
2022/08/24 01:05:52;;;;;;;9.80;7.20;;;11.80;99.90;;;;;;20494269;29;20102;-61
2022/08/24 01:16:03;;;;;;;8.95;6.07;;;11.80;99.90;;;;;;20464225;28;20374;-52
2022/08/24 01:26:09;;;;;;;8.35;5.82;;;11.90;99.90;;;;;;20493688;29;20090;-50
2022/08/24 01:36:19;;;;;;;8.65;5.45;;;11.80;99.90;;;;;;20509670;29;20031;-48
2022/08/24 01:46:22;;;;;;;8.48;5.15;;;11.70;99.90;;;;;;20472982;29;20070;-53
2022/08/24 01:56:25;;;;;;;8.13;4.97;;;11.70;99.90;;;;;;20473354;29;20043;-51
2022/08/24 02:06:28;;;;;;;9.07;7.70;;;11.70;99.90;;;;;;20505260;29;20433;-49
2022/08/24 02:16:31;;;;;;;8.32;5.85;;;11.70;99.90;;;;;;20473880;28;20456;-49
2022/08/24 02:26:34;;;;;;;5.13;4.18;;;11.60;99.90;;;;;;20504822;28;20094;-50
2022/08/24 02:36:38;;;;;;;5.57;3.67;;;11.50;99.90;;;;;;20485888;29;20086;-61
2022/08/24 02:46:42;;;;;;;3.63;2.72;;;11.50;99.90;;;;;;20499501;29;20039;-50
2022/08/24 02:56:47;;;;;;;4.10;2.30;;;11.40;99.90;;;;;;20502935;29;20027;-52
2022/08/24 03:06:50;;;;;;;3.78;2.63;;;11.40;99.90;;;;;;20501980;29;20071;-48
2022/08/24 03:16:53;;;;;;;4.15;2.90;;;11.50;99.90;;;;;;20482533;28;20130;-50
2022/08/24 03:26:55;;;;;;;3.53;3.05;;;11.50;99.90;;;;;;20502250;29;20035;-50
2022/08/24 03:36:58;;;;;;;3.72;2.65;;;11.30;99.90;;;;;;20483050;28;20035;-62
2022/08/24 03:47:00;;;;;;;3.17;2.75;;;11.10;99.90;;;;;;20498985;29;20481;-51
2022/08/24 03:57:05;;;;;;;3.65;2.20;;;11.20;99.90;;;;;;20447392;29;20075;-47
2022/08/24 04:07:08;;;;;;;4.43;2.20;;;11.20;99.90;;;;;;20481385;29;20070;-62
2022/08/24 04:17:11;;;;;;;3.00;2.30;;;11.10;99.90;;;;;;20464756;29;20099;-48
2022/08/24 04:27:18;;;;;;;5.90;2.60;;;11.20;99.90;;;;;;20480336;29;20051;-51
2022/08/24 04:37:20;;;;;;;3.58;2.17;;;10.90;99.90;;;;;;20463326;29;20094;-46
2022/08/24 04:47:24;;;;;;;3.88;1.92;;;10.80;99.90;;;;;;20477638;28;20039;-48
2022/08/24 04:57:26;;;;;;;3.65;1.85;;;11.10;99.90;;;;;;20463305;29;20568;-49
2022/08/24 05:07:30;;;;;;;3.33;2.90;;;11.10;99.90;;;;;;20491961;29;20058;-49
2022/08/24 05:17:33;;;;;;;4.55;2.67;;;11.10;99.90;;;;;;20460674;29;20044;-48
2022/08/24 05:27:35;;;;;;;4.43;3.00;;;11.30;99.90;;;;;;20475093;29;20035;-48
2022/08/24 05:37:39;;;;;;;3.63;3.22;;;11.40;99.90;;;;;;20456987;29;20162;-49
2022/08/24 05:47:51;;;;;;;2.80;1.80;;;11.50;99.90;;;;;;20474187;29;21348;-51
2022/08/24 05:58:23;;;;;;;2.95;2.00;;;11.60;99.90;;;;;;20171824;29;20053;-52
2022/08/24 06:08:28;;;;;;;3.90;1.70;;;11.80;99.90;;;;;;20167020;29;20487;-62
2022/08/24 06:18:33;;;;;;;3.20;1.60;;;11.90;99.90;;;;;;20157833;29;20242;-53
2022/08/24 06:28:38;;;;;;;1.40;1.30;;;12.50;99.90;;;;;;20255361;29;20086;-48
2022/08/24 06:38:40;;;;;;;2.90;0.95;;;13.00;99.90;;;;;;20506398;29;20039;-51
2022/08/24 06:48:44;;;;;;;3.00;1.50;;;15.20;99.90;;;;;;20487471;29;20043;-48
2022/08/24 06:58:47;;;;;;;2.55;1.85;;;17.40;99.90;;;;;;20499958;28;20039;-48
2022/08/24 07:08:55;;;;;;;3.17;2.50;;;19.10;99.90;;;;;;20466934;29;20039;-65
2022/08/24 07:18:58;;;;;;;3.15;1.90;;;20.20;99.90;;;;;;20499921;28;20110;-50
2022/08/24 07:29:06;;;;;;;1.45;1.30;;;20.60;99.90;;;;;;20484448;29;20047;-62
2022/08/24 07:39:18;;;;;;;3.05;1.42;;;21.30;99.90;;;;;;20466333;29;20047;-53
2022/08/24 07:49:21;;;;;;;2.35;1.30;;;21.70;99.90;;;;;;20480057;29;20031;-52
2022/08/24 07:59:23;;;;;;;1.30;1.17;;;22.50;99.90;;;;;;20478565;29;20040;-65
2022/08/24 08:09:29;;;;;;;1.50;1.15;;;22.90;98.70;;;;;;20481870;29;20098;-64
2022/08/24 08:19:32;;;;;;;2.13;1.30;;;23.00;96.30;;;;;;20494371;29;20051;-52
2022/08/24 08:29:39;;;;;;;1.58;1.10;;;23.10;95.90;;;;;;20480353;28;20334;-53
2022/08/24 08:39:42;;;;;;;1.85;1.33;;;23.20;94.50;;;;;;20464289;29;20031;-64
2022/08/24 08:50:09;;;;;;;1.87;1.23;;;23.50;93.90;;;;;;20461636;29;20039;-48
2022/08/24 09:00:37;;;;;;;2.20;1.60;;;23.50;94.90;;;;;;20476240;29;20035;-50
2022/08/24 09:10:49;;;;;;;2.03;1.25;;;23.80;92.40;;;;;;20494221;29;20039;-48
2022/08/24 09:21:08;;;;;;;5.63;1.33;;;24.00;93.80;;;;;;20491234;29;20051;-49
2022/08/24 09:31:55;;;;;;;1.75;1.15;;;24.20;92.00;;;;;;20477392;29;20039;-52
2022/08/24 09:42:34;;;;;;;1.55;1.13;;;24.30;91.20;;;;;;20259896;29;20044;-53
2022/08/24 09:52:48;;;;;;;3.85;1.17;;;24.50;93.20;;;;;;20246240;29;20112;-64
2022/08/24 10:02:59;;;;;;;2.20;1.10;;;24.70;92.20;;;;;;20244637;28;20100;-51
2022/08/24 10:13:22;;;;;;;1.38;1.02;;;25.00;94.20;;;;;;20403377;28;20043;-59
2022/08/24 10:23:54;;;;;;;1.33;1.00;;;25.10;93.30;;;;;;20502976;29;20579;-51
2022/08/24 10:34:15;;;;;;;1.20;1.10;;;25.00;93.30;;;;;;20504023;29;20086;-63
2022/08/24 10:44:53;;;;;;;2.65;1.60;;;25.10;93.10;;;;;;20504262;29;20401;-65
2022/08/24 10:55:09;;;;;;;1.45;1.25;;;25.00;92.80;;;;;;20245974;29;20093;-51
2022/08/24 11:05:17;;;;;;;4.07;1.50;;;25.20;93.50;;;;;;20243089;28;20061;-49
2022/08/24 11:15:26;;;;;;;2.25;1.52;;;24.60;96.00;;;;;;20242559;29;20438;-64
2022/08/24 11:25:32;;;;;;;2.50;1.40;;;25.10;95.20;;;;;;20332084;28;20529;-51
2022/08/24 11:35:38;;;;;;;2.17;1.45;;;25.80;95.90;;;;;;20496520;29;20094;-53
2022/08/24 11:45:55;;;;;;;2.00;1.35;;;25.70;94.70;;;;;;20499210;29;20102;-65
2022/08/24 11:56:39;;;;;;;2.72;1.33;;;26.20;94.10;;;;;;20495966;28;20032;-64
2022/08/24 12:07:11;;;;;;;1.75;1.25;;;26.60;93.60;;;;;;20172466;29;20045;-50
2022/08/24 12:17:53;;;;;;;1.98;1.67;;;27.20;92.30;;;;;;20180078;29;20045;-62
2022/08/24 12:27:57;;;;;;;2.17;1.60;;;27.00;91.60;;;;;;20234280;29;20426;-65
2022/08/24 12:38:14;;;;;;;2.28;1.65;;;27.20;93.90;;;;;;20342717;29;20043;-65
2022/08/24 12:48:42;;;;;;;2.35;1.67;;;27.20;94.50;;;;;;20492061;29;20481;-65
2022/08/24 12:58:50;;;;;;;3.72;2.00;;;27.80;92.60;;;;;;20479028;29;20106;-52
2022/08/24 13:09:07;;;;;;;4.10;2.10;;;28.00;93.60;;;;;;20478322;28;20109;-51
2022/08/24 13:19:32;;;;;;;3.83;2.63;;;28.10;93.10;;;;;;20493197;29;20057;-49
2022/08/24 13:29:38;;;;;;;3.67;2.50;;;27.90;92.40;;;;;;20492483;28;20047;-64
2022/08/24 13:40:00;;;;;;;3.23;2.50;;;28.30;92.10;;;;;;20509550;29;20035;-66
2022/08/24 13:50:27;;;;;;;2.85;2.20;;;27.40;92.40;;;;;;20508088;29;20042;-51
2022/08/24 14:00:42;;;;;;;2.77;1.90;;;26.80;94.30;;;;;;20504537;29;20043;-53
2022/08/24 14:11:08;;;;;;;3.17;2.10;;;26.30;95.00;;;;;;20488021;28;20130;-54
2022/08/24 14:21:18;;;;;;;5.53;1.80;;;26.40;94.30;;;;;;20505095;28;20044;-52
2022/08/24 14:31:29;;;;;;;5.55;2.40;;;26.10;94.10;;;;;;20504635;28;20031;-55
2022/08/24 14:41:52;;;;;;;2.33;2.00;;;25.90;93.70;;;;;;20485684;29;20047;-52
2022/08/24 14:52:13;;;;;;;3.25;2.00;;;25.70;94.40;;;;;;20503999;29;20051;-50
2022/08/24 15:02:37;;;;;;;2.10;1.67;;;25.60;93.70;;;;;;20484764;28;20042;-52
2022/08/24 15:13:04;;;;;;;4.13;2.08;;;25.10;93.60;;;;;;20487116;29;20090;-53
2022/08/24 15:23:53;;;;;;;2.47;2.00;;;24.20;94.90;;;;;;20333591;29;20088;-55
2022/08/24 15:34:02;;;;;;;3.53;2.80;;;23.40;94.60;;;;;;20317170;29;20117;-63
2022/08/24 15:44:12;;;;;;;4.65;2.83;;;22.80;95.20;;;;;;20302530;29;20048;-52
2022/08/24 15:54:24;;;;;;;4.95;2.70;;;22.00;96.10;;;;;;20318292;29;20249;-63
2022/08/24 16:04:46;;;;;;;2.47;2.10;;;20.90;98.40;;;;;;20316117;29;20028;-62
2022/08/24 16:15:16;;;;;;;3.30;3.00;;;19.90;99.90;;;;;;20313164;29;20043;-64
2022/08/24 16:25:42;;;;;;;3.35;2.67;;;19.20;99.90;;;;;;20327274;29;20052;-63
2022/08/24 16:35:45;;;;;;;2.88;2.22;;;18.60;99.90;;;;;;20314451;29;20695;-63
2022/08/24 16:45:48;;;;;;;3.30;2.50;;;18.00;99.90;;;;;;20313128;29;20044;-52
2022/08/24 16:55:52;;;;;;;2.55;2.33;;;17.60;99.90;;;;;;20317438;29;20044;-63
2022/08/24 17:05:55;;;;;;;4.35;2.70;;;17.30;99.90;;;;;;20316923;29;20059;-49
2022/08/24 17:15:58;;;;;;;4.05;2.65;;;17.00;99.90;;;;;;20313435;29;20048;-53
2022/08/24 17:26:05;;;;;;;6.43;4.65;;;16.70;99.90;;;;;;20313716;29;20359;-50
2022/08/24 17:36:09;;;;;;;3.63;3.15;;;16.40;99.90;;;;;;20304852;29;20059;-59
2022/08/24 17:46:14;;;;;;;5.35;4.03;;;16.20;99.90;;;;;;20311007;29;20037;-71
2022/08/24 17:56:19;;;;;;;5.50;4.10;;;15.90;99.90;;;;;;20306167;29;20075;-63
2022/08/24 18:06:26;;;;;;;6.13;4.20;;;15.60;99.90;;;;;;20304804;29;20067;-64
2022/08/24 18:16:29;;;;;;;6.70;5.30;;;15.40;99.90;;;;;;20315609;29;20622;-64
2022/08/24 18:26:32;;;;;;;9.85;4.88;;;15.20;99.90;;;;;;20424287;29;20105;-63
2022/08/24 18:36:35;;;;;;;6.15;4.20;;;15.00;99.90;;;;;;20505564;29;20043;-61
2022/08/24 18:46:39;;;;;;;5.03;4.53;;;14.80;99.90;;;;;;20488946;29;20043;-64
2022/08/24 18:56:42;;;;;;;7.22;4.38;;;14.70;99.90;;;;;;20489616;29;20039;-63
2022/08/24 19:06:46;;;;;;;4.18;3.40;;;14.60;99.90;;;;;;20485793;28;20492;-59
2022/08/24 19:16:48;;;;;;;3.58;2.75;;;14.60;99.90;;;;;;20486302;29;20110;-59
2022/08/24 19:26:52;;;;;;;3.50;3.20;;;14.50;99.90;;;;;;20485985;29;20374;-60
2022/08/24 19:36:54;;;;;;;5.05;2.83;;;14.40;99.90;;;;;;20499986;28;20039;-67
2022/08/24 19:46:58;;;;;;;3.35;2.65;;;14.40;99.90;;;;;;20483797;29;20099;-62
2022/08/24 19:57:01;;;;;;;3.88;2.58;;;14.60;99.90;;;;;;20499481;29;20071;-61
2022/08/24 20:07:03;;;;;;;2.30;1.95;;;14.70;99.90;;;;;;20492206;28;20390;-64
2022/08/24 20:17:06;;;;;;;3.70;1.90;;;14.70;99.90;;;;;;20478076;28;20047;-56
2022/08/24 20:27:16;;;;;;;3.08;2.45;;;14.70;99.90;;;;;;20463482;28;20098;-58
2022/08/24 20:37:25;;;;;;;3.47;1.75;;;14.60;99.90;;;;;;20495739;28;20043;-59
2022/08/24 20:47:28;;;;;;;2.85;1.98;;;14.60;99.90;;;;;;20489610;28;20039;-58
2022/08/24 20:57:31;;;;;;;2.28;2.05;;;14.40;99.90;;;;;;20468931;28;20035;-59
2022/08/24 21:07:34;;;;;;;6.50;2.42;;;14.20;99.90;;;;;;20493207;28;20373;-63
2022/08/24 21:17:36;;;;;;;2.92;2.20;;;14.10;99.90;;;;;;20476625;28;20039;-60
2022/08/24 21:27:42;;;;;;;3.17;2.10;;;13.90;99.90;;;;;;20450291;28;20469;-64
2022/08/24 21:37:45;;;;;;;2.55;2.20;;;13.80;99.90;;;;;;20486176;29;20483;-62
2022/08/24 21:47:49;;;;;;;2.20;1.92;;;13.60;99.90;;;;;;20496770;29;20035;-65
2022/08/24 21:57:51;;;;;;;2.80;2.20;;;13.60;99.90;;;;;;20495971;29;20027;-67
2022/08/24 22:07:54;;;;;;;3.53;1.83;;;13.70;99.90;;;;;;20406675;29;20040;-68
2022/08/24 22:17:56;;;;;;;2.63;1.85;;;13.70;99.90;;;;;;20448708;29;20047;-63
2022/08/24 22:27:59;;;;;;;1.80;1.67;;;13.80;99.90;;;;;;20493810;29;20090;-64
2022/08/24 22:38:01;;;;;;;1.80;1.48;;;13.70;99.90;;;;;;20493046;29;20091;-64
2022/08/24 22:48:17;;;;;;;4.57;1.67;;;13.60;99.90;;;;;;20491840;28;20039;-62
2022/08/24 22:58:22;;;;;;;3.78;2.00;;;13.60;99.90;;;;;;20460521;29;20039;-62
2022/08/24 23:08:25;;;;;;;1.77;1.40;;;13.60;99.90;;;;;;20416271;29;20450;-64
2022/08/24 23:28:49;;;;;;;2.58;2.00;;;13.70;99.90;;;;;;20410353;29;20043;-64
2022/08/24 23:38:55;;;;;;;3.15;1.70;;;13.90;99.90;;;;;;20393918;29;20067;-66
2022/08/24 23:48:57;;;;;;;1.92;1.55;;;14.10;99.90;;;;;;20470770;29;20187;-65
2022/08/24 23:59:05;;;;;;;4.00;1.70;;;14.40;99.90;;;;;;20499451;28;20489;-64
